sensor_id;sensor_type;location;lat;lon;timestamp;P1;durP1;ratioP1;P2;durP2;ratioP2
14738;SDS011;7461;52.440;13.540;2024-03-02T00:01:37;74.93;;;67.93;;
14738;SDS011;7461;52.440;13.540;2024-03-02T00:04:04;69.35;;;62.88;;
14738;SDS011;7461;52.440;13.540;2024-03-02T00:06:32;73.55;;;66.57;;
14738;SDS011;7461;52.440;13.540;2024-03-02T00:08:59;70.40;;;63.97;;
14738;SDS011;7461;52.440;13.540;2024-03-02T00:11:26;75.15;;;68.20;;
14738;SDS011;7461;52.440;13.540;2024-03-02T00:13:54;79.18;;;72.63;;
14738;SDS011;7461;52.440;13.540;2024-03-02T00:16:21;80.20;;;72.65;;
14738;SDS011;7461;52.440;13.540;2024-03-02T00:18:50;81.63;;;73.47;;
14738;SDS011;7461;52.440;13.540;2024-03-02T00:21:17;78.30;;;71.32;;
14738;SDS011;7461;52.440;13.540;2024-03-02T00:23:47;76.30;;;69.15;;
14738;SDS011;7461;52.440;13.540;2024-03-02T00:26:17;76.82;;;69.70;;
14738;SDS011;7461;52.440;13.540;2024-03-02T00:28:44;76.25;;;68.45;;
14738;SDS011;7461;52.440;13.540;2024-03-02T00:31:11;86.00;;;78.00;;
14738;SDS011;7461;52.440;13.540;2024-03-02T00:33:40;75.18;;;68.25;;
14738;SDS011;7461;52.440;13.540;2024-03-02T00:36:10;81.20;;;73.63;;
14738;SDS011;7461;52.440;13.540;2024-03-02T00:38:42;79.00;;;71.18;;
14738;SDS011;7461;52.440;13.540;2024-03-02T00:41:15;76.45;;;69.32;;
14738;SDS011;7461;52.440;13.540;2024-03-02T00:43:43;78.20;;;70.93;;
14738;SDS011;7461;52.440;13.540;2024-03-02T00:46:11;82.00;;;73.88;;
14738;SDS011;7461;52.440;13.540;2024-03-02T00:48:39;77.13;;;69.93;;
14738;SDS011;7461;52.440;13.540;2024-03-02T00:51:06;81.72;;;74.10;;
14738;SDS011;7461;52.440;13.540;2024-03-02T00:53:36;84.80;;;76.75;;
14738;SDS011;7461;52.440;13.540;2024-03-02T00:56:04;83.95;;;76.10;;
14738;SDS011;7461;52.440;13.540;2024-03-02T00:58:34;79.97;;;72.88;;
14738;SDS011;7461;52.440;13.540;2024-03-02T01:01:01;81.68;;;73.32;;
14738;SDS011;7461;52.440;13.540;2024-03-02T01:03:29;84.03;;;75.82;;
14738;SDS011;7461;52.440;13.540;2024-03-02T01:05:56;78.25;;;70.90;;
14738;SDS011;7461;52.440;13.540;2024-03-02T01:08:23;83.70;;;75.68;;
14738;SDS011;7461;52.440;13.540;2024-03-02T01:10:52;85.38;;;77.25;;
14738;SDS011;7461;52.440;13.540;2024-03-02T01:13:19;79.85;;;72.78;;
14738;SDS011;7461;52.440;13.540;2024-03-02T01:15:47;81.47;;;73.45;;
14738;SDS011;7461;52.440;13.540;2024-03-02T01:18:14;84.10;;;76.55;;
14738;SDS011;7461;52.440;13.540;2024-03-02T01:20:41;85.15;;;77.13;;
14738;SDS011;7461;52.440;13.540;2024-03-02T01:23:08;85.07;;;76.88;;
14738;SDS011;7461;52.440;13.540;2024-03-02T01:25:36;84.75;;;77.03;;
14738;SDS011;7461;52.440;13.540;2024-03-02T01:28:05;84.10;;;76.63;;
14738;SDS011;7461;52.440;13.540;2024-03-02T01:30:32;78.78;;;71.22;;
14738;SDS011;7461;52.440;13.540;2024-03-02T01:33:00;84.85;;;76.78;;
14738;SDS011;7461;52.440;13.540;2024-03-02T01:35:27;85.80;;;77.88;;
14738;SDS011;7461;52.440;13.540;2024-03-02T01:37:54;88.05;;;79.68;;
14738;SDS011;7461;52.440;13.540;2024-03-02T01:40:21;84.65;;;76.82;;
14738;SDS011;7461;52.440;13.540;2024-03-02T01:42:51;84.88;;;76.57;;
14738;SDS011;7461;52.440;13.540;2024-03-02T01:45:20;88.22;;;80.40;;
14738;SDS011;7461;52.440;13.540;2024-03-02T01:47:48;86.30;;;78.35;;
14738;SDS011;7461;52.440;13.540;2024-03-02T01:50:15;79.60;;;72.57;;
14738;SDS011;7461;52.440;13.540;2024-03-02T01:52:43;85.60;;;78.20;;
14738;SDS011;7461;52.440;13.540;2024-03-02T01:55:11;88.38;;;80.22;;
14738;SDS011;7461;52.440;13.540;2024-03-02T01:57:38;82.70;;;75.25;;
14738;SDS011;7461;52.440;13.540;2024-03-02T02:00:06;81.13;;;73.90;;
14738;SDS011;7461;52.440;13.540;2024-03-02T02:02:36;86.50;;;78.03;;
14738;SDS011;7461;52.440;13.540;2024-03-02T02:05:03;89.72;;;81.03;;
14738;SDS011;7461;52.440;13.540;2024-03-02T02:07:30;91.03;;;83.18;;
14738;SDS011;7461;52.440;13.540;2024-03-02T02:09:59;85.72;;;77.38;;
14738;SDS011;7461;52.440;13.540;2024-03-02T02:12:27;81.20;;;73.68;;
14738;SDS011;7461;52.440;13.540;2024-03-02T02:14:55;78.50;;;71.25;;
14738;SDS011;7461;52.440;13.540;2024-03-02T02:17:22;86.93;;;79.20;;
14738;SDS011;7461;52.440;13.540;2024-03-02T02:19:51;80.97;;;73.00;;
14738;SDS011;7461;52.440;13.540;2024-03-02T02:22:19;82.38;;;74.63;;
14738;SDS011;7461;52.440;13.540;2024-03-02T02:24:46;84.07;;;76.57;;
14738;SDS011;7461;52.440;13.540;2024-03-02T02:27:14;88.07;;;79.68;;
14738;SDS011;7461;52.440;13.540;2024-03-02T02:29:41;83.65;;;75.00;;
14738;SDS011;7461;52.440;13.540;2024-03-02T02:32:08;87.03;;;79.60;;
14738;SDS011;7461;52.440;13.540;2024-03-02T02:34:35;83.40;;;76.00;;
14738;SDS011;7461;52.440;13.540;2024-03-02T02:37:03;92.40;;;83.47;;
14738;SDS011;7461;52.440;13.540;2024-03-02T02:39:31;86.32;;;78.43;;
14738;SDS011;7461;52.440;13.540;2024-03-02T02:41:59;92.07;;;82.30;;
14738;SDS011;7461;52.440;13.540;2024-03-02T02:44:27;88.95;;;80.32;;
14738;SDS011;7461;52.440;13.540;2024-03-02T02:46:55;88.47;;;79.80;;
14738;SDS011;7461;52.440;13.540;2024-03-02T02:49:22;88.38;;;80.15;;
14738;SDS011;7461;52.440;13.540;2024-03-02T02:51:49;87.55;;;78.45;;
14738;SDS011;7461;52.440;13.540;2024-03-02T02:54:16;91.32;;;82.45;;
14738;SDS011;7461;52.440;13.540;2024-03-02T02:56:45;86.40;;;78.57;;
14738;SDS011;7461;52.440;13.540;2024-03-02T02:59:12;88.28;;;80.30;;
14738;SDS011;7461;52.440;13.540;2024-03-02T03:01:39;83.22;;;75.95;;
14738;SDS011;7461;52.440;13.540;2024-03-02T03:04:06;92.47;;;83.97;;
14738;SDS011;7461;52.440;13.540;2024-03-02T03:06:34;93.32;;;84.63;;
14738;SDS011;7461;52.440;13.540;2024-03-02T03:09:01;88.43;;;80.07;;
14738;SDS011;7461;52.440;13.540;2024-03-02T03:11:28;85.65;;;77.78;;
14738;SDS011;7461;52.440;13.540;2024-03-02T03:14:00;84.88;;;76.85;;
14738;SDS011;7461;52.440;13.540;2024-03-02T03:16:27;87.68;;;79.38;;
14738;SDS011;7461;52.440;13.540;2024-03-02T03:18:54;86.13;;;78.00;;
14738;SDS011;7461;52.440;13.540;2024-03-02T03:21:22;86.38;;;78.07;;
14738;SDS011;7461;52.440;13.540;2024-03-02T03:23:49;85.03;;;77.07;;
14738;SDS011;7461;52.440;13.540;2024-03-02T03:26:16;86.85;;;78.78;;
14738;SDS011;7461;52.440;13.540;2024-03-02T03:28:44;85.32;;;77.70;;
14738;SDS011;7461;52.440;13.540;2024-03-02T03:31:12;83.15;;;75.63;;
14738;SDS011;7461;52.440;13.540;2024-03-02T03:33:39;79.60;;;72.38;;
14738;SDS011;7461;52.440;13.540;2024-03-02T03:36:06;84.47;;;76.57;;
14738;SDS011;7461;52.440;13.540;2024-03-02T03:38:34;83.28;;;76.32;;
14738;SDS011;7461;52.440;13.540;2024-03-02T03:41:01;81.20;;;73.40;;
14738;SDS011;7461;52.440;13.540;2024-03-02T03:43:28;82.45;;;75.07;;
14738;SDS011;7461;52.440;13.540;2024-03-02T03:45:55;81.85;;;74.55;;
14738;SDS011;7461;52.440;13.540;2024-03-02T03:48:26;82.75;;;74.50;;
14738;SDS011;7461;52.440;13.540;2024-03-02T03:50:55;80.05;;;72.18;;
14738;SDS011;7461;52.440;13.540;2024-03-02T03:53:22;84.93;;;76.82;;
14738;SDS011;7461;52.440;13.540;2024-03-02T03:55:50;85.18;;;77.15;;
14738;SDS011;7461;52.440;13.540;2024-03-02T03:58:17;81.68;;;74.10;;
14738;SDS011;7461;52.440;13.540;2024-03-02T04:00:45;82.65;;;74.55;;
14738;SDS011;7461;52.440;13.540;2024-03-02T04:03:12;79.80;;;72.85;;
14738;SDS011;7461;52.440;13.540;2024-03-02T04:05:40;81.45;;;73.75;;
14738;SDS011;7461;52.440;13.540;2024-03-02T04:08:07;80.57;;;72.90;;
14738;SDS011;7461;52.440;13.540;2024-03-02T04:10:36;80.97;;;73.18;;
14738;SDS011;7461;52.440;13.540;2024-03-02T04:13:05;78.05;;;70.72;;
14738;SDS011;7461;52.440;13.540;2024-03-02T04:15:32;84.28;;;76.18;;
14738;SDS011;7461;52.440;13.540;2024-03-02T04:17:59;78.30;;;70.72;;
14738;SDS011;7461;52.440;13.540;2024-03-02T04:20:27;79.30;;;71.72;;
14738;SDS011;7461;52.440;13.540;2024-03-02T04:22:56;82.40;;;74.63;;
14738;SDS011;7461;52.440;13.540;2024-03-02T04:25:23;79.05;;;71.82;;
14738;SDS011;7461;52.440;13.540;2024-03-02T04:27:50;76.60;;;69.57;;
14738;SDS011;7461;52.440;13.540;2024-03-02T04:30:17;78.10;;;70.43;;
14738;SDS011;7461;52.440;13.540;2024-03-02T04:32:45;74.07;;;67.22;;
14738;SDS011;7461;52.440;13.540;2024-03-02T04:35:12;78.15;;;70.68;;
14738;SDS011;7461;52.440;13.540;2024-03-02T04:37:40;76.57;;;69.38;;
14738;SDS011;7461;52.440;13.540;2024-03-02T04:40:09;74.90;;;68.18;;
14738;SDS011;7461;52.440;13.540;2024-03-02T04:42:36;73.43;;;66.50;;
14738;SDS011;7461;52.440;13.540;2024-03-02T04:45:04;75.97;;;68.57;;
14738;SDS011;7461;52.440;13.540;2024-03-02T04:47:32;74.70;;;67.80;;
14738;SDS011;7461;52.440;13.540;2024-03-02T04:49:59;74.20;;;67.32;;
14738;SDS011;7461;52.440;13.540;2024-03-02T04:52:26;75.55;;;68.03;;
14738;SDS011;7461;52.440;13.540;2024-03-02T04:54:54;77.88;;;70.63;;
14738;SDS011;7461;52.440;13.540;2024-03-02T04:57:51;72.68;;;65.70;;
14738;SDS011;7461;52.440;13.540;2024-03-02T05:00:20;70.82;;;64.03;;
14738;SDS011;7461;52.440;13.540;2024-03-02T05:02:47;73.30;;;66.38;;
14738;SDS011;7461;52.440;13.540;2024-03-02T05:05:14;74.55;;;67.13;;
14738;SDS011;7461;52.440;13.540;2024-03-02T05:07:41;72.47;;;66.15;;
14738;SDS011;7461;52.440;13.540;2024-03-02T05:10:09;73.47;;;66.93;;
14738;SDS011;7461;52.440;13.540;2024-03-02T05:12:37;73.95;;;67.20;;
14738;SDS011;7461;52.440;13.540;2024-03-02T05:15:23;72.07;;;65.32;;
14738;SDS011;7461;52.440;13.540;2024-03-02T05:17:49;70.80;;;64.47;;
14738;SDS011;7461;52.440;13.540;2024-03-02T05:20:16;75.47;;;68.18;;
14738;SDS011;7461;52.440;13.540;2024-03-02T05:22:43;74.97;;;67.85;;
14738;SDS011;7461;52.440;13.540;2024-03-02T05:25:12;75.35;;;68.53;;
14738;SDS011;7461;52.440;13.540;2024-03-02T05:27:39;69.68;;;62.80;;
14738;SDS011;7461;52.440;13.540;2024-03-02T05:30:07;70.20;;;64.13;;
14738;SDS011;7461;52.440;13.540;2024-03-02T05:32:35;74.05;;;67.30;;
14738;SDS011;7461;52.440;13.540;2024-03-02T05:35:03;71.32;;;64.55;;
14738;SDS011;7461;52.440;13.540;2024-03-02T05:37:30;77.75;;;70.70;;
14738;SDS011;7461;52.440;13.540;2024-03-02T05:39:57;74.95;;;68.20;;
14738;SDS011;7461;52.440;13.540;2024-03-02T05:42:25;77.57;;;70.32;;
14738;SDS011;7461;52.440;13.540;2024-03-02T05:44:52;74.57;;;67.30;;
14738;SDS011;7461;52.440;13.540;2024-03-02T05:47:20;76.65;;;69.80;;
14738;SDS011;7461;52.440;13.540;2024-03-02T05:49:48;75.90;;;69.28;;
14738;SDS011;7461;52.440;13.540;2024-03-02T05:52:16;74.45;;;67.55;;
14738;SDS011;7461;52.440;13.540;2024-03-02T05:54:43;79.45;;;72.10;;
14738;SDS011;7461;52.440;13.540;2024-03-02T05:57:10;78.80;;;71.03;;
14738;SDS011;7461;52.440;13.540;2024-03-02T05:59:57;80.20;;;73.13;;
14738;SDS011;7461;52.440;13.540;2024-03-02T06:02:25;79.03;;;71.85;;
14738;SDS011;7461;52.440;13.540;2024-03-02T06:04:55;80.32;;;72.38;;
14738;SDS011;7461;52.440;13.540;2024-03-02T06:07:22;81.38;;;73.63;;
14738;SDS011;7461;52.440;13.540;2024-03-02T06:09:49;82.40;;;74.78;;
14738;SDS011;7461;52.440;13.540;2024-03-02T06:12:17;86.82;;;78.00;;
14738;SDS011;7461;52.440;13.540;2024-03-02T06:14:45;78.50;;;71.10;;
14738;SDS011;7461;52.440;13.540;2024-03-02T06:17:12;83.00;;;75.57;;
14738;SDS011;7461;52.440;13.540;2024-03-02T06:19:39;76.72;;;69.80;;
14738;SDS011;7461;52.440;13.540;2024-03-02T06:22:08;84.90;;;76.95;;
14738;SDS011;7461;52.440;13.540;2024-03-02T06:24:35;86.65;;;78.65;;
14738;SDS011;7461;52.440;13.540;2024-03-02T06:27:03;87.53;;;78.65;;
14738;SDS011;7461;52.440;13.540;2024-03-02T06:29:32;83.80;;;75.97;;
14738;SDS011;7461;52.440;13.540;2024-03-02T06:31:59;87.78;;;79.57;;
14738;SDS011;7461;52.440;13.540;2024-03-02T06:34:26;83.93;;;75.95;;
14738;SDS011;7461;52.440;13.540;2024-03-02T06:36:54;86.95;;;78.05;;
14738;SDS011;7461;52.440;13.540;2024-03-02T06:39:22;86.75;;;78.53;;
14738;SDS011;7461;52.440;13.540;2024-03-02T06:41:50;84.18;;;76.57;;
14738;SDS011;7461;52.440;13.540;2024-03-02T06:44:18;87.95;;;79.57;;
14738;SDS011;7461;52.440;13.540;2024-03-02T06:46:46;88.03;;;79.82;;
14738;SDS011;7461;52.440;13.540;2024-03-02T06:49:13;89.78;;;80.65;;
14738;SDS011;7461;52.440;13.540;2024-03-02T06:51:43;89.60;;;81.07;;
14738;SDS011;7461;52.440;13.540;2024-03-02T06:54:10;88.15;;;79.53;;
14738;SDS011;7461;52.440;13.540;2024-03-02T06:56:39;87.10;;;78.63;;
14738;SDS011;7461;52.440;13.540;2024-03-02T06:59:06;88.00;;;79.47;;
14738;SDS011;7461;52.440;13.540;2024-03-02T07:01:33;89.78;;;81.10;;
14738;SDS011;7461;52.440;13.540;2024-03-02T07:04:01;89.30;;;81.00;;
14738;SDS011;7461;52.440;13.540;2024-03-02T07:06:28;89.07;;;80.50;;
14738;SDS011;7461;52.440;13.540;2024-03-02T07:08:55;90.55;;;81.78;;
14738;SDS011;7461;52.440;13.540;2024-03-02T07:11:22;88.32;;;80.38;;
14738;SDS011;7461;52.440;13.540;2024-03-02T07:13:51;86.00;;;77.78;;
14738;SDS011;7461;52.440;13.540;2024-03-02T07:16:18;87.53;;;79.32;;
14738;SDS011;7461;52.440;13.540;2024-03-02T07:18:53;92.05;;;83.78;;
14738;SDS011;7461;52.440;13.540;2024-03-02T07:21:21;85.55;;;77.30;;
14738;SDS011;7461;52.440;13.540;2024-03-02T07:23:48;88.72;;;80.20;;
14738;SDS011;7461;52.440;13.540;2024-03-02T07:26:16;88.53;;;80.35;;
14738;SDS011;7461;52.440;13.540;2024-03-02T07:28:44;88.57;;;79.72;;
14738;SDS011;7461;52.440;13.540;2024-03-02T07:31:13;89.32;;;80.32;;
14738;SDS011;7461;52.440;13.540;2024-03-02T07:33:40;90.78;;;81.82;;
14738;SDS011;7461;52.440;13.540;2024-03-02T07:36:07;86.90;;;79.07;;
14738;SDS011;7461;52.440;13.540;2024-03-02T07:38:35;87.90;;;79.65;;
14738;SDS011;7461;52.440;13.540;2024-03-02T07:41:02;84.97;;;77.03;;
14738;SDS011;7461;52.440;13.540;2024-03-02T07:43:30;82.90;;;75.05;;
14738;SDS011;7461;52.440;13.540;2024-03-02T07:45:58;90.72;;;81.95;;
14738;SDS011;7461;52.440;13.540;2024-03-02T07:48:26;87.03;;;79.45;;
14738;SDS011;7461;52.440;13.540;2024-03-02T07:50:54;88.82;;;79.65;;
14738;SDS011;7461;52.440;13.540;2024-03-02T07:53:21;91.18;;;82.25;;
14738;SDS011;7461;52.440;13.540;2024-03-02T07:55:48;86.43;;;78.38;;
14738;SDS011;7461;52.440;13.540;2024-03-02T07:58:15;92.53;;;83.18;;
14738;SDS011;7461;52.440;13.540;2024-03-02T08:00:44;90.00;;;81.40;;
14738;SDS011;7461;52.440;13.540;2024-03-02T08:03:11;91.57;;;83.20;;
14738;SDS011;7461;52.440;13.540;2024-03-02T08:05:40;88.20;;;79.47;;
14738;SDS011;7461;52.440;13.540;2024-03-02T08:08:07;86.80;;;78.55;;
14738;SDS011;7461;52.440;13.540;2024-03-02T08:10:34;87.78;;;79.82;;
14738;SDS011;7461;52.440;13.540;2024-03-02T08:13:02;91.25;;;82.40;;
14738;SDS011;7461;52.440;13.540;2024-03-02T08:15:29;88.47;;;79.45;;
14738;SDS011;7461;52.440;13.540;2024-03-02T08:17:56;93.68;;;84.78;;
14738;SDS011;7461;52.440;13.540;2024-03-02T08:20:24;86.13;;;77.88;;
14738;SDS011;7461;52.440;13.540;2024-03-02T08:22:52;90.55;;;81.93;;
14738;SDS011;7461;52.440;13.540;2024-03-02T08:25:20;86.82;;;78.80;;
14738;SDS011;7461;52.440;13.540;2024-03-02T08:27:47;89.38;;;80.68;;
14738;SDS011;7461;52.440;13.540;2024-03-02T08:30:15;87.35;;;79.32;;
14738;SDS011;7461;52.440;13.540;2024-03-02T08:32:43;91.18;;;82.97;;
14738;SDS011;7461;52.440;13.540;2024-03-02T08:35:12;83.80;;;76.30;;
14738;SDS011;7461;52.440;13.540;2024-03-02T08:37:40;86.70;;;78.53;;
14738;SDS011;7461;52.440;13.540;2024-03-02T08:40:10;81.50;;;73.60;;
14738;SDS011;7461;52.440;13.540;2024-03-02T08:42:37;84.85;;;76.85;;
14738;SDS011;7461;52.440;13.540;2024-03-02T08:45:04;84.38;;;76.68;;
14738;SDS011;7461;52.440;13.540;2024-03-02T08:47:32;81.50;;;73.78;;
14738;SDS011;7461;52.440;13.540;2024-03-02T08:49:59;83.80;;;76.05;;
14738;SDS011;7461;52.440;13.540;2024-03-02T08:52:26;79.50;;;71.75;;
14738;SDS011;7461;52.440;13.540;2024-03-02T08:54:56;78.53;;;70.85;;
14738;SDS011;7461;52.440;13.540;2024-03-02T08:57:24;79.97;;;72.28;;
14738;SDS011;7461;52.440;13.540;2024-03-02T08:59:52;80.47;;;73.40;;
14738;SDS011;7461;52.440;13.540;2024-03-02T09:02:19;78.85;;;71.47;;
14738;SDS011;7461;52.440;13.540;2024-03-02T09:04:46;75.55;;;68.30;;
14738;SDS011;7461;52.440;13.540;2024-03-02T09:07:13;81.93;;;73.97;;
14738;SDS011;7461;52.440;13.540;2024-03-02T09:09:40;78.80;;;71.20;;
14738;SDS011;7461;52.440;13.540;2024-03-02T09:12:08;75.30;;;68.55;;
14738;SDS011;7461;52.440;13.540;2024-03-02T09:14:37;74.82;;;68.15;;
14738;SDS011;7461;52.440;13.540;2024-03-02T09:17:04;74.18;;;67.03;;
14738;SDS011;7461;52.440;13.540;2024-03-02T09:19:32;77.97;;;70.30;;
14738;SDS011;7461;52.440;13.540;2024-03-02T09:21:59;71.10;;;64.43;;
14738;SDS011;7461;52.440;13.540;2024-03-02T09:24:28;74.85;;;67.82;;
14738;SDS011;7461;52.440;13.540;2024-03-02T09:26:55;69.95;;;63.70;;
14738;SDS011;7461;52.440;13.540;2024-03-02T09:29:22;70.60;;;64.20;;
14738;SDS011;7461;52.440;13.540;2024-03-02T09:31:51;65.43;;;59.47;;
14738;SDS011;7461;52.440;13.540;2024-03-02T09:34:18;66.53;;;60.53;;
14738;SDS011;7461;52.440;13.540;2024-03-02T09:36:45;67.57;;;61.20;;
14738;SDS011;7461;52.440;13.540;2024-03-02T09:39:13;66.28;;;60.38;;
14738;SDS011;7461;52.440;13.540;2024-03-02T09:41:40;68.10;;;62.25;;
14738;SDS011;7461;52.440;13.540;2024-03-02T09:44:07;61.80;;;55.67;;
14738;SDS011;7461;52.440;13.540;2024-03-02T09:46:35;63.70;;;57.42;;
14738;SDS011;7461;52.440;13.540;2024-03-02T09:49:03;64.47;;;58.50;;
14738;SDS011;7461;52.440;13.540;2024-03-02T09:51:33;63.08;;;57.53;;
14738;SDS011;7461;52.440;13.540;2024-03-02T09:54:00;59.42;;;54.08;;
14738;SDS011;7461;52.440;13.540;2024-03-02T09:56:28;61.03;;;55.38;;
14738;SDS011;7461;52.440;13.540;2024-03-02T09:58:55;65.22;;;59.35;;
14738;SDS011;7461;52.440;13.540;2024-03-02T10:01:22;64.45;;;58.65;;
14738;SDS011;7461;52.440;13.540;2024-03-02T10:03:49;57.90;;;52.60;;
14738;SDS011;7461;52.440;13.540;2024-03-02T10:06:22;56.80;;;51.78;;
14738;SDS011;7461;52.440;13.540;2024-03-02T10:08:50;54.53;;;49.13;;
14738;SDS011;7461;52.440;13.540;2024-03-02T10:11:25;51.22;;;46.75;;
14738;SDS011;7461;52.440;13.540;2024-03-02T10:14:03;46.88;;;42.42;;
14738;SDS011;7461;52.440;13.540;2024-03-02T10:16:33;45.10;;;41.28;;
14738;SDS011;7461;52.440;13.540;2024-03-02T10:19:09;46.08;;;41.67;;
14738;SDS011;7461;52.440;13.540;2024-03-02T10:21:43;44.22;;;40.15;;
14738;SDS011;7461;52.440;13.540;2024-03-02T10:24:10;43.85;;;39.80;;
14738;SDS011;7461;52.440;13.540;2024-03-02T10:26:38;45.85;;;41.65;;
14738;SDS011;7461;52.440;13.540;2024-03-02T10:29:05;41.78;;;38.25;;
14738;SDS011;7461;52.440;13.540;2024-03-02T10:31:32;44.05;;;40.30;;
14738;SDS011;7461;52.440;13.540;2024-03-02T10:34:00;42.55;;;38.75;;
14738;SDS011;7461;52.440;13.540;2024-03-02T10:36:28;43.47;;;39.80;;
14738;SDS011;7461;52.440;13.540;2024-03-02T10:38:58;41.33;;;38.00;;
14738;SDS011;7461;52.440;13.540;2024-03-02T10:41:26;42.80;;;39.15;;
14738;SDS011;7461;52.440;13.540;2024-03-02T10:43:54;42.75;;;39.22;;
14738;SDS011;7461;52.440;13.540;2024-03-02T10:46:26;44.38;;;40.35;;
14738;SDS011;7461;52.440;13.540;2024-03-02T10:48:55;43.63;;;39.95;;
14738;SDS011;7461;52.440;13.540;2024-03-02T10:51:24;42.67;;;38.97;;
14738;SDS011;7461;52.440;13.540;2024-03-02T10:53:52;44.75;;;40.67;;
14738;SDS011;7461;52.440;13.540;2024-03-02T10:56:27;43.20;;;39.67;;
14738;SDS011;7461;52.440;13.540;2024-03-02T10:58:55;48.08;;;43.88;;
14738;SDS011;7461;52.440;13.540;2024-03-02T11:01:25;43.60;;;39.85;;
14738;SDS011;7461;52.440;13.540;2024-03-02T11:03:52;42.65;;;38.83;;
14738;SDS011;7461;52.440;13.540;2024-03-02T11:06:20;40.60;;;36.67;;
14738;SDS011;7461;52.440;13.540;2024-03-02T11:08:48;44.38;;;40.33;;
14738;SDS011;7461;52.440;13.540;2024-03-02T11:11:19;43.35;;;39.55;;
14738;SDS011;7461;52.440;13.540;2024-03-02T11:13:50;41.47;;;37.38;;
14738;SDS011;7461;52.440;13.540;2024-03-02T11:16:18;42.22;;;38.65;;
14738;SDS011;7461;52.440;13.540;2024-03-02T11:18:47;41.08;;;37.25;;
14738;SDS011;7461;52.440;13.540;2024-03-02T11:21:15;41.78;;;37.92;;
14738;SDS011;7461;52.440;13.540;2024-03-02T11:23:45;41.63;;;38.05;;
14738;SDS011;7461;52.440;13.540;2024-03-02T11:26:19;40.55;;;37.25;;
14738;SDS011;7461;52.440;13.540;2024-03-02T11:28:46;43.78;;;39.88;;
14738;SDS011;7461;52.440;13.540;2024-03-02T11:31:15;41.42;;;37.63;;
14738;SDS011;7461;52.440;13.540;2024-03-02T11:33:42;40.97;;;37.55;;
14738;SDS011;7461;52.440;13.540;2024-03-02T11:36:10;40.88;;;37.28;;
14738;SDS011;7461;52.440;13.540;2024-03-02T11:38:38;40.28;;;36.50;;
14738;SDS011;7461;52.440;13.540;2024-03-02T11:41:06;38.92;;;35.72;;
14738;SDS011;7461;52.440;13.540;2024-03-02T11:43:36;33.63;;;30.80;;
14738;SDS011;7461;52.440;13.540;2024-03-02T11:46:05;38.20;;;35.05;;
14738;SDS011;7461;52.440;13.540;2024-03-02T11:48:36;36.67;;;33.22;;
14738;SDS011;7461;52.440;13.540;2024-03-02T11:51:03;37.50;;;33.80;;
14738;SDS011;7461;52.440;13.540;2024-03-02T11:53:31;37.05;;;33.85;;
14738;SDS011;7461;52.440;13.540;2024-03-02T11:55:58;35.65;;;32.72;;
14738;SDS011;7461;52.440;13.540;2024-03-02T11:58:26;37.17;;;33.70;;
14738;SDS011;7461;52.440;13.540;2024-03-02T12:00:54;36.10;;;33.10;;
14738;SDS011;7461;52.440;13.540;2024-03-02T12:03:23;32.38;;;29.65;;
14738;SDS011;7461;52.440;13.540;2024-03-02T12:05:53;30.92;;;28.20;;
14738;SDS011;7461;52.440;13.540;2024-03-02T12:08:20;32.83;;;29.70;;
14738;SDS011;7461;52.440;13.540;2024-03-02T12:10:57;31.45;;;28.67;;
14738;SDS011;7461;52.440;13.540;2024-03-02T12:13:25;34.22;;;31.33;;
14738;SDS011;7461;52.440;13.540;2024-03-02T12:15:53;30.33;;;27.73;;
14738;SDS011;7461;52.440;13.540;2024-03-02T12:18:21;32.15;;;29.23;;
14738;SDS011;7461;52.440;13.540;2024-03-02T12:20:48;30.80;;;28.10;;
14738;SDS011;7461;52.440;13.540;2024-03-02T12:23:19;29.08;;;26.50;;
14738;SDS011;7461;52.440;13.540;2024-03-02T12:25:46;29.52;;;26.88;;
14738;SDS011;7461;52.440;13.540;2024-03-02T12:28:13;29.50;;;26.85;;
14738;SDS011;7461;52.440;13.540;2024-03-02T12:30:41;28.20;;;25.90;;
14738;SDS011;7461;52.440;13.540;2024-03-02T12:33:08;27.42;;;25.05;;
14738;SDS011;7461;52.440;13.540;2024-03-02T12:35:38;29.40;;;26.73;;
14738;SDS011;7461;52.440;13.540;2024-03-02T12:38:06;28.42;;;25.95;;
14738;SDS011;7461;52.440;13.540;2024-03-02T12:40:35;31.80;;;28.95;;
14738;SDS011;7461;52.440;13.540;2024-03-02T12:43:02;30.10;;;27.60;;
14738;SDS011;7461;52.440;13.540;2024-03-02T12:45:29;28.20;;;25.80;;
14738;SDS011;7461;52.440;13.540;2024-03-02T12:47:57;26.65;;;24.48;;
14738;SDS011;7461;52.440;13.540;2024-03-02T12:50:24;27.95;;;25.58;;
14738;SDS011;7461;52.440;13.540;2024-03-02T12:52:52;28.00;;;25.50;;
14738;SDS011;7461;52.440;13.540;2024-03-02T12:55:20;29.20;;;26.75;;
14738;SDS011;7461;52.440;13.540;2024-03-02T12:57:50;30.88;;;28.48;;
14738;SDS011;7461;52.440;13.540;2024-03-02T13:00:18;30.30;;;27.73;;
14738;SDS011;7461;52.440;13.540;2024-03-02T13:02:45;198.07;;;106.72;;
14738;SDS011;7461;52.440;13.540;2024-03-02T13:05:13;42.53;;;38.95;;
14738;SDS011;7461;52.440;13.540;2024-03-02T13:07:41;29.92;;;27.23;;
14738;SDS011;7461;52.440;13.540;2024-03-02T13:10:10;69.60;;;42.97;;
14738;SDS011;7461;52.440;13.540;2024-03-02T13:12:37;370.75;;;187.13;;
14738;SDS011;7461;52.440;13.540;2024-03-02T13:15:06;53.30;;;44.05;;
14738;SDS011;7461;52.440;13.540;2024-03-02T13:17:35;90.68;;;54.80;;
14738;SDS011;7461;52.440;13.540;2024-03-02T13:20:03;27.85;;;25.35;;
14738;SDS011;7461;52.440;13.540;2024-03-02T13:22:33;91.63;;;49.67;;
14738;SDS011;7461;52.440;13.540;2024-03-02T13:25:00;34.03;;;30.52;;
14738;SDS011;7461;52.440;13.540;2024-03-02T13:27:28;35.38;;;32.13;;
14738;SDS011;7461;52.440;13.540;2024-03-02T13:29:56;47.00;;;35.95;;
14738;SDS011;7461;52.440;13.540;2024-03-02T13:32:25;26.35;;;24.15;;
14738;SDS011;7461;52.440;13.540;2024-03-02T13:34:52;23.98;;;22.17;;
14738;SDS011;7461;52.440;13.540;2024-03-02T13:37:20;22.48;;;20.65;;
14738;SDS011;7461;52.440;13.540;2024-03-02T13:39:47;27.50;;;24.85;;
14738;SDS011;7461;52.440;13.540;2024-03-02T13:42:14;23.55;;;21.65;;
14738;SDS011;7461;52.440;13.540;2024-03-02T13:44:43;24.00;;;21.88;;
14738;SDS011;7461;52.440;13.540;2024-03-02T13:47:13;41.33;;;34.10;;
14738;SDS011;7461;52.440;13.540;2024-03-02T13:49:41;52.90;;;38.30;;
14738;SDS011;7461;52.440;13.540;2024-03-02T13:52:11;125.90;;;70.38;;
14738;SDS011;7461;52.440;13.540;2024-03-02T13:54:39;46.88;;;37.28;;
14738;SDS011;7461;52.440;13.540;2024-03-02T13:57:07;35.25;;;31.45;;
14738;SDS011;7461;52.440;13.540;2024-03-02T13:59:34;26.08;;;23.08;;
14738;SDS011;7461;52.440;13.540;2024-03-02T14:02:02;23.70;;;21.42;;
14738;SDS011;7461;52.440;13.540;2024-03-02T14:04:30;181.95;;;71.93;;
14738;SDS011;7461;52.440;13.540;2024-03-02T14:06:59;29.55;;;25.77;;
14738;SDS011;7461;52.440;13.540;2024-03-02T14:09:27;27.45;;;25.05;;
14738;SDS011;7461;52.440;13.540;2024-03-02T14:11:54;58.53;;;40.03;;
14738;SDS011;7461;52.440;13.540;2024-03-02T14:14:21;23.70;;;21.90;;
14738;SDS011;7461;52.440;13.540;2024-03-02T14:16:49;23.17;;;21.17;;
14738;SDS011;7461;52.440;13.540;2024-03-02T14:19:16;23.48;;;21.60;;
14738;SDS011;7461;52.440;13.540;2024-03-02T14:21:44;24.30;;;22.23;;
14738;SDS011;7461;52.440;13.540;2024-03-02T14:24:13;24.08;;;21.38;;
14738;SDS011;7461;52.440;13.540;2024-03-02T14:26:41;22.30;;;20.48;;